Time;durP1;ratioP1;P1;durP2;ratioP2;P2;SDS_P1;SDS_P2;PMS_P1;PMS_P2;Temp;Humidity;BMP_temperature;BMP_pressure;BME280_temperature;BME280_humidity;BME280_pressure;Samples;Min_cycle;Max_cycle;Signal;HPM_P1;HPM_P2
2023/01/10 00:01:30;;;;;;;6.90;3.20;;;;;;;-17.02;66.81;101203.56;7347742;19;20122;-79
2023/01/10 00:03:55;;;;;;;2.25;1.92;;;;;;;-17.09;67.16;101206.50;7349650;19;20006;-81
2023/01/10 00:06:20;;;;;;;3.90;2.03;;;;;;;-16.93;66.77;101199.06;7347317;19;20011;-80
2023/01/10 00:08:44;;;;;;;5.15;2.70;;;;;;;-16.77;66.53;101191.53;7349584;19;20010;-78
2023/01/10 00:13:53;;;;;;;5.17;3.00;;;;;;;-16.85;66.42;101197.84;7351735;19;20105;-75
2023/01/10 00:16:18;;;;;;;8.27;3.83;;;;;;;-16.74;66.23;101201.94;7351192;19;20296;-79
2023/01/10 00:18:43;;;;;;;7.15;3.05;;;;;;;-16.71;65.48;101208.91;7349458;19;20019;-81
2023/01/10 00:21:08;;;;;;;2.60;2.03;;;;;;;-16.97;65.67;101204.75;7354914;19;20003;-76
2023/01/10 00:23:33;;;;;;;6.35;2.58;;;;;;;-16.80;65.80;101206.66;7350337;19;20101;-73
2023/01/10 00:25:57;;;;;;;1.52;1.27;;;;;;;-16.94;65.60;101189.63;7351952;19;20006;-81
2023/01/10 00:28:22;;;;;;;3.13;2.10;;;;;;;-16.84;65.52;101212.38;7352743;19;20021;-76
2023/01/10 00:30:53;;;;;;;3.42;1.88;;;;;;;-16.90;65.28;101188.13;7359902;19;20011;-80
2023/01/10 00:33:18;;;;;;;4.05;2.40;;;;;;;-16.99;65.79;101193.56;7370038;19;19999;-80
2023/01/10 00:35:43;;;;;;;5.38;2.85;;;;;;;-16.74;65.70;101224.03;7371021;19;20006;-78
2023/01/10 00:38:07;;;;;;;2.08;1.20;;;;;;;-16.85;65.42;101223.34;7377063;19;20015;-79
2023/01/10 00:40:32;;;;;;;6.90;2.53;;;;;;;-16.70;65.06;101178.38;7369585;19;20043;-74
2023/01/10 00:45:41;;;;;;;5.25;3.42;;;;;;;-16.62;65.32;101176.31;7349857;19;20014;-75
2023/01/10 00:48:05;;;;;;;3.03;2.00;;;;;;;-16.84;65.07;101179.22;7349862;19;20011;-79
2023/01/10 00:50:30;;;;;;;0.82;0.63;;;;;;;-16.91;65.44;101177.06;7351967;19;19998;-81
2023/01/10 00:52:55;;;;;;;8.25;3.20;;;;;;;-16.69;65.57;101182.69;7346875;19;20010;-77
2023/01/10 00:55:19;;;;;;;4.47;3.15;;;;;;;-16.56;65.09;101167.31;7354063;19;20010;-81
2023/01/10 00:57:44;;;;;;;6.50;4.15;;;;;;;-16.53;64.88;101178.50;7350418;19;20461;-76
2023/01/10 01:00:10;;;;;;;5.40;2.38;;;;;;;-16.70;64.90;101178.38;7348210;19;20452;-80
2023/01/10 01:02:35;;;;;;;2.47;2.17;;;;;;;-16.72;64.92;101166.34;7348239;19;20014;-75
2023/01/10 01:05:00;;;;;;;1.60;1.08;;;;;;;-16.87;65.42;101162.84;7349079;19;20034;-78
2023/01/10 01:07:24;;;;;;;13.13;5.22;;;;;;;-16.70;65.48;101144.34;7348990;19;20345;-76
2023/01/10 01:12:32;;;;;;;5.28;2.33;;;;;;;-16.67;65.37;101140.31;7342684;19;20684;-71
2023/01/10 01:14:57;;;;;;;5.88;2.55;;;;;;;-16.77;65.46;101145.63;7344330;19;20360;-70
2023/01/10 01:17:21;;;;;;;7.93;3.80;;;;;;;-16.60;65.32;101149.19;7345599;19;20014;-70
2023/01/10 01:19:46;;;;;;;10.40;4.03;;;;;;;-16.62;64.91;101140.59;7345046;19;20014;-70
2023/01/10 01:22:10;;;;;;;7.00;3.20;;;;;;;-16.87;65.12;101132.22;7347002;19;20015;-70
2023/01/10 01:24:35;;;;;;;3.38;2.67;;;;;;;-16.73;64.97;101154.38;7346175;19;20006;-70
2023/01/10 01:27:00;;;;;;;5.25;2.75;;;;;;;-16.64;64.70;101137.94;7344646;19;20010;-75
2023/01/10 01:29:25;;;;;;;2.67;2.20;;;;;;;-16.73;64.99;101142.50;7345324;19;20002;-73
2023/01/10 01:31:51;;;;;;;4.10;3.05;;;;;;;-16.74;64.98;101153.47;7346225;19;20015;-78
2023/01/10 01:34:15;;;;;;;5.05;2.90;;;;;;;-16.63;65.01;101138.81;7341015;19;20480;-77
2023/01/10 01:36:40;;;;;;;4.32;3.15;;;;;;;-16.81;65.05;101169.19;7343379;19;20464;-73
2023/01/10 01:39:05;;;;;;;5.13;3.38;;;;;;;-16.90;65.62;101157.53;7345925;19;20015;-79
2023/01/10 01:44:18;;;;;;;4.00;2.50;;;;;;;-16.69;65.73;101153.75;7341398;19;20346;-75
2023/01/10 01:46:47;;;;;;;10.23;4.10;;;;;;;-16.38;65.58;101156.44;7346378;19;20460;-78
2023/01/10 01:49:19;;;;;;;6.78;1.83;;;;;;;-16.55;65.28;101157.97;7345281;19;20014;-75
2023/01/10 01:51:46;;;;;;;2.08;1.75;;;;;;;-16.64;65.60;101150.69;7345924;19;20003;-74
2023/01/10 01:54:12;;;;;;;3.42;2.88;;;;;;;-16.47;65.18;101138.00;7344845;19;20028;-74
2023/01/10 01:56:45;;;;;;;11.23;5.38;;;;;;;-16.25;64.20;101136.81;7345410;19;20014;-79
2023/01/10 01:59:19;;;;;;;5.93;3.75;;;;;;;-16.30;63.99;101142.47;7345430;19;20006;-77
2023/01/10 02:01:48;;;;;;;6.60;2.67;;;;;;;-16.63;64.27;101132.06;7346482;19;20011;-77
2023/01/10 02:04:17;;;;;;;6.80;2.67;;;;;;;-16.53;64.91;101145.31;7343557;19;20015;-72
2023/01/10 02:06:44;;;;;;;6.93;3.00;;;;;;;-16.55;64.60;101142.66;7345536;19;20025;-75
2023/01/10 02:09:33;;;;;;;9.85;4.68;;;;;;;-16.36;64.32;101147.22;7346927;19;20014;-75
2023/01/10 02:11:58;;;;;;;2.83;1.73;;;;;;;-16.65;64.25;101154.03;7343980;19;20018;-78
2023/01/10 02:14:25;;;;;;;3.13;1.55;;;;;;;-16.65;64.79;101151.47;7348049;19;20015;-76
2023/01/10 02:16:49;;;;;;;3.22;2.05;;;;;;;-16.69;64.82;101144.41;7343838;19;20014;-75
2023/01/10 02:19:38;;;;;;;1.98;1.75;;;;;;;-16.81;65.31;101148.78;7347289;19;20002;-79
2023/01/10 02:22:27;;;;;;;5.82;3.30;;;;;;;-16.59;65.48;101141.59;7357621;19;20027;-74
2023/01/10 02:25:14;;;;;;;14.13;6.35;;;;;;;-16.46;65.41;101162.75;7357653;19;20326;-70
2023/01/10 02:28:10;;;;;;;3.88;2.28;;;;;;;-16.48;64.78;101170.34;7351415;19;20481;-77
2023/01/10 02:31:19;;;;;;;3.22;1.98;;;;;;;-16.56;64.73;101149.44;7352753;19;20021;-74
2023/01/10 02:33:56;;;;;;;4.90;2.22;;;;;;;-16.55;64.94;101153.75;7359715;19;20025;-86
2023/01/10 02:36:35;;;;;;;10.55;4.00;;;;;;;-16.42;64.85;101157.06;7365956;19;20429;-78
2023/01/10 02:39:20;;;;;;;6.90;2.50;;;;;;;-16.51;64.80;101144.63;7352450;19;20033;-80
2023/01/10 02:41:55;;;;;;;8.88;4.30;;;;;;;-16.27;64.59;101168.19;7349921;19;20007;-67
2023/01/10 02:44:23;;;;;;;5.10;3.33;;;;;;;-16.39;64.76;101142.81;7350535;19;20102;-69
2023/01/10 02:46:48;;;;;;;11.98;4.60;;;;;;;-16.30;64.59;101142.47;7347920;19;20328;-70
2023/01/10 02:49:13;;;;;;;3.53;2.30;;;;;;;-16.51;64.68;101156.50;7349760;19;20368;-70
2023/01/10 02:51:38;;;;;;;8.68;3.97;;;;;;;-16.37;65.05;101158.22;7346467;19;20364;-69
2023/01/10 02:54:07;;;;;;;2.97;1.88;;;;;;;-16.39;64.77;101163.22;7347692;19;20018;-66
2023/01/10 02:56:53;;;;;;;3.50;2.13;;;;;;;-16.44;65.07;101161.19;7349159;19;20082;-65
2023/01/10 02:59:23;;;;;;;1.17;1.08;;;;;;;-16.49;65.26;101158.38;7348063;19;20353;-69
2023/01/10 03:02:06;;;;;;;7.45;3.28;;;;;;;-16.25;65.52;101174.25;7350418;19;20472;-76
2023/01/10 03:04:52;;;;;;;2.38;1.40;;;;;;;-16.25;65.56;101164.91;7351812;19;20014;-71
2023/01/10 03:07:54;;;;;;;4.13;2.90;;;;;;;-16.11;64.98;101172.50;7350352;19;20010;-76
2023/01/10 03:10:29;;;;;;;3.95;3.20;;;;;;;-16.09;64.57;101160.72;7355533;19;20011;-76
2023/01/10 03:13:02;;;;;;;4.63;2.85;;;;;;;-16.21;64.68;101165.97;7349174;19;20103;-76
2023/01/10 03:15:30;;;;;;;7.78;3.30;;;;;;;-16.10;64.47;101170.03;7350612;19;20095;-79
2023/01/10 03:17:59;;;;;;;1.00;0.55;;;;;;;-16.27;64.55;101163.06;7350527;19;20453;-80
2023/01/10 03:20:25;;;;;;;2.65;1.40;;;;;;;-16.27;64.71;101152.88;7351245;19;20479;-79
2023/01/10 03:22:54;;;;;;;6.70;3.05;;;;;;;-16.29;65.02;101172.31;7351482;19;20351;-78
2023/01/10 03:25:23;;;;;;;4.95;3.10;;;;;;;-16.31;65.23;101156.00;7349139;19;20014;-75
2023/01/10 03:27:59;;;;;;;12.68;3.85;;;;;;;-16.08;65.34;101158.25;7352603;19;20066;-74
2023/01/10 03:30:34;;;;;;;5.63;2.83;;;;;;;-16.30;65.23;101156.09;7351150;19;20018;-75
2023/01/10 03:32:59;;;;;;;9.13;2.17;;;;;;;-16.15;65.18;101151.03;7353615;19;20449;-79
2023/01/10 03:35:38;;;;;;;12.88;4.60;;;;;;;-16.09;65.27;101137.72;7360386;19;20006;-79
2023/01/10 03:38:14;;;;;;;6.50;2.90;;;;;;;-16.01;65.17;101145.03;7357930;19;20077;-77
2023/01/10 03:40:53;;;;;;;1.42;1.10;;;;;;;-15.94;65.17;101136.94;7362589;19;20014;-77
2023/01/10 03:46:22;;;;;;;6.93;3.50;;;;;;;-16.10;65.60;101154.72;7357600;19;20014;-75
2023/01/10 03:48:48;;;;;;;9.50;3.03;;;;;;;-15.93;65.61;101159.16;7360889;19;20014;-73
2023/01/10 03:51:14;;;;;;;7.93;5.15;;;;;;;-15.68;65.64;101146.06;7353560;19;20698;-71
2023/01/10 03:53:39;;;;;;;5.45;3.58;;;;;;;-15.86;65.28;101174.03;7348480;19;20118;-72
2023/01/10 03:56:05;;;;;;;5.65;3.58;;;;;;;-15.67;65.30;101177.63;7353678;19;20003;-75
2023/01/10 03:58:30;;;;;;;1.60;1.48;;;;;;;-15.75;65.28;101182.31;7356653;19;20026;-75
2023/01/10 04:00:54;;;;;;;1.10;1.10;;;;;;;-15.62;65.01;101182.22;7358933;19;20003;-74
2023/01/10 04:03:22;;;;;;;10.63;5.65;;;;;;;-15.48;65.01;101171.06;7352437;19;20400;-71
2023/01/10 04:05:47;;;;;;;5.13;2.58;;;;;;;-15.64;64.76;101181.25;7346383;19;20350;-70
2023/01/10 04:08:12;;;;;;;1.95;1.77;;;;;;;-15.69;65.11;101181.78;7346798;19;20342;-71
2023/01/10 04:10:37;;;;;;;8.57;4.55;;;;;;;-15.60;65.34;101184.88;7346990;19;20082;-71
2023/01/10 04:13:02;;;;;;;5.47;2.42;;;;;;;-15.47;64.66;101171.97;7349377;19;20027;-74
2023/01/10 04:15:27;;;;;;;3.95;2.92;;;;;;;-15.59;64.66;101181.53;7346329;19;20017;-70
2023/01/10 04:17:53;;;;;;;4.32;2.88;;;;;;;-15.46;64.71;101183.94;7347320;19;20014;-71
2023/01/10 04:20:18;;;;;;;8.65;2.63;;;;;;;-15.66;64.81;101179.38;7346118;19;20022;-70
2023/01/10 04:22:44;;;;;;;4.95;2.53;;;;;;;-15.49;64.71;101176.09;7347309;19;20022;-70
2023/01/10 04:25:09;;;;;;;5.50;3.75;;;;;;;-15.46;64.50;101197.56;7344113;19;20019;-69
2023/01/10 04:27:33;;;;;;;3.17;2.25;;;;;;;-15.66;64.81;101189.63;7345043;19;20055;-70
2023/01/10 04:29:58;;;;;;;9.82;4.18;;;;;;;-15.40;64.99;101193.63;7347689;19;20003;-69
2023/01/10 04:32:22;;;;;;;5.82;3.83;;;;;;;-15.56;64.40;101186.78;7342037;19;20010;-71
2023/01/10 04:34:47;;;;;;;5.63;3.40;;;;;;;-15.63;64.76;101198.34;7345869;19;20488;-70
2023/01/10 04:37:12;;;;;;;3.55;2.05;;;;;;;-15.59;64.96;101201.97;7345472;19;20018;-70
2023/01/10 04:39:36;;;;;;;2.83;1.88;;;;;;;-15.54;64.71;101197.97;7346703;19;20010;-71
2023/01/10 04:42:01;;;;;;;2.78;2.50;;;;;;;-15.62;64.94;101196.66;7347321;19;20019;-69
2023/01/10 04:44:25;;;;;;;8.45;5.00;;;;;;;-15.29;64.72;101193.44;7345759;19;20018;-70
2023/01/10 04:46:50;;;;;;;3.88;2.67;;;;;;;-15.43;64.74;101204.56;7346218;19;20014;-70
2023/01/10 04:49:15;;;;;;;6.28;2.90;;;;;;;-15.39;64.69;101200.50;7344402;19;20025;-70
2023/01/10 04:51:39;;;;;;;8.10;4.47;;;;;;;-15.26;64.56;101202.97;7344720;19;20022;-71
2023/01/10 04:54:04;;;;;;;3.28;2.00;;;;;;;-15.34;64.30;101209.28;7343608;19;20329;-70
2023/01/10 04:56:29;;;;;;;6.57;4.78;;;;;;;-15.19;64.43;101200.81;7344718;19;20025;-70
2023/01/10 04:58:53;;;;;;;3.78;3.05;;;;;;;-15.29;64.28;101192.53;7346316;19;20530;-69
2023/01/10 05:01:21;;;;;;;8.73;4.35;;;;;;;-15.30;64.62;101211.25;7348112;19;20252;-70
2023/01/10 05:03:53;;;;;;;10.32;5.30;;;;;;;-15.26;64.71;101210.63;7346851;19;20372;-70
2023/01/10 05:06:18;;;;;;;4.55;3.53;;;;;;;-15.35;64.88;101203.34;7343093;19;20010;-69
2023/01/10 05:08:43;;;;;;;4.82;2.03;;;;;;;-15.45;65.03;101209.56;7344392;19;20022;-69
2023/01/10 05:11:08;;;;;;;3.75;2.25;;;;;;;-15.38;65.31;101195.47;7343185;19;20019;-70
2023/01/10 05:13:32;;;;;;;6.90;4.20;;;;;;;-15.41;65.53;101204.63;7343429;19;20015;-69
2023/01/10 05:15:58;;;;;;;6.75;3.28;;;;;;;-15.26;65.42;101208.97;7344665;19;20007;-68
2023/01/10 05:18:24;;;;;;;6.78;4.38;;;;;;;-15.16;65.42;101224.00;7342713;19;20044;-68
2023/01/10 05:20:48;;;;;;;5.40;3.65;;;;;;;-15.02;65.27;101224.78;7345170;19;20018;-68
2023/01/10 05:23:13;;;;;;;13.82;5.28;;;;;;;-15.17;65.18;101229.03;7344120;19;20035;-68
2023/01/10 05:25:37;;;;;;;2.25;2.05;;;;;;;-15.17;65.52;101237.59;7343148;19;20011;-68
2023/01/10 05:28:02;;;;;;;4.28;2.55;;;;;;;-15.27;65.71;101250.66;7344358;19;20006;-68
2023/01/10 05:30:27;;;;;;;2.88;1.63;;;;;;;-15.21;65.69;101253.53;7342272;19;20085;-68
2023/01/10 05:32:51;;;;;;;6.55;3.88;;;;;;;-15.03;65.81;101263.06;7342543;19;20022;-68
2023/01/10 05:35:16;;;;;;;3.63;2.05;;;;;;;-15.16;65.98;101252.16;7344934;19;20078;-70
2023/01/10 05:37:41;;;;;;;3.15;1.92;;;;;;;-15.19;66.10;101257.06;7344001;19;20011;-69
2023/01/10 05:40:06;;;;;;;0.47;0.47;;;;;;;-15.00;66.21;101261.53;7344523;19;20022;-71
2023/01/10 05:42:31;;;;;;;3.08;1.50;;;;;;;-15.03;66.15;101263.06;7345186;19;20054;-72
2023/01/10 05:44:56;;;;;;;0.60;0.60;;;;;;;-14.92;66.51;101259.44;7344199;19;20022;-67
2023/01/10 05:47:20;;;;;;;1.20;1.02;;;;;;;-14.91;66.52;101268.88;7344068;19;20050;-67
2023/01/10 05:49:45;;;;;;;4.10;2.95;;;;;;;-14.77;66.88;101268.81;7343119;19;20026;-68
2023/01/10 05:52:10;;;;;;;1.60;1.33;;;;;;;-14.65;66.63;101267.72;7343898;19;20023;-68
2023/01/10 05:54:34;;;;;;;3.97;2.67;;;;;;;-14.62;66.09;101283.28;7342028;19;20017;-68
2023/01/10 05:56:59;;;;;;;0.50;0.28;;;;;;;-14.66;66.33;101274.53;7350626;19;20007;-68
2023/01/10 05:59:24;;;;;;;3.45;2.33;;;;;;;-14.48;66.44;101269.53;7351596;19;20481;-66
2023/01/10 06:01:48;;;;;;;4.93;1.52;;;;;;;-14.38;66.01;101270.09;7351622;19;20023;-68
2023/01/10 06:04:13;;;;;;;8.18;3.65;;;;;;;-14.28;65.34;101263.78;7350619;19;20010;-68
2023/01/10 06:06:38;;;;;;;8.10;3.08;;;;;;;-14.27;65.35;101269.78;7352902;19;20025;-67
2023/01/10 06:09:02;;;;;;;7.22;2.28;;;;;;;-14.27;64.91;101262.97;7352686;19;20127;-68
2023/01/10 06:11:30;;;;;;;11.30;5.18;;;;;;;-14.10;64.97;101286.91;7349830;19;20014;-68
2023/01/10 06:13:58;;;;;;;20.63;2.90;;;;;;;-14.36;65.12;101270.19;7351358;19;20043;-67
2023/01/10 06:16:23;;;;;;;6.07;3.08;;;;;;;-14.43;65.21;101276.66;7350013;19;20026;-68
2023/01/10 06:18:48;;;;;;;6.18;2.38;;;;;;;-14.51;65.64;101288.19;7348817;19;20051;-68
2023/01/10 06:21:13;;;;;;;3.97;2.55;;;;;;;-14.43;65.95;101298.81;7347158;19;20015;-67
2023/01/10 06:23:38;;;;;;;4.60;3.17;;;;;;;-14.31;66.14;101289.22;7349209;19;20010;-67
2023/01/10 06:26:03;;;;;;;5.00;2.20;;;;;;;-14.19;65.82;101286.44;7351633;19;20014;-66
2023/01/10 06:28:27;;;;;;;3.92;1.90;;;;;;;-14.25;65.91;101296.38;7351304;19;20084;-67
2023/01/10 06:30:52;;;;;;;2.10;1.48;;;;;;;-14.43;66.32;101297.16;7349997;19;20014;-66
2023/01/10 06:33:17;;;;;;;2.38;1.48;;;;;;;-14.31;66.69;101312.25;7350793;19;20074;-67
2023/01/10 06:35:42;;;;;;;3.95;2.40;;;;;;;-14.28;66.56;101312.44;7349312;19;20019;-67
2023/01/10 06:38:07;;;;;;;3.65;1.90;;;;;;;-14.34;66.82;101307.88;7351575;19;20018;-67
2023/01/10 06:40:32;;;;;;;2.30;1.98;;;;;;;-14.14;67.07;101303.81;7349141;19;20031;-67
2023/01/10 06:42:57;;;;;;;4.10;2.05;;;;;;;-14.10;66.96;101303.16;7349103;19;20477;-67
2023/01/10 06:45:21;;;;;;;7.47;2.63;;;;;;;-13.87;66.89;101300.94;7352388;19;20353;-68
2023/01/10 06:47:46;;;;;;;15.63;5.47;;;;;;;-13.63;66.41;101285.16;7351402;19;20015;-67
2023/01/10 06:50:12;;;;;;;9.70;4.25;;;;;;;-13.52;65.95;101300.19;7349824;19;20097;-69
2023/01/10 06:52:37;;;;;;;4.13;2.63;;;;;;;-13.72;66.03;101296.63;7346776;19;20003;-69
2023/01/10 06:55:01;;;;;;;7.05;3.70;;;;;;;-13.86;66.22;101303.56;7349484;19;20421;-70
2023/01/10 06:57:28;;;;;;;4.57;2.50;;;;;;;-13.76;66.66;101305.81;7351583;19;20507;-70
2023/01/10 06:59:53;;;;;;;7.38;2.17;;;;;;;-13.75;66.56;101302.44;7351262;19;20379;-69
2023/01/10 07:02:18;;;;;;;4.68;2.70;;;;;;;-13.59;66.71;101319.53;7354242;19;20011;-68
2023/01/10 07:04:42;;;;;;;5.80;3.55;;;;;;;-13.27;65.28;101318.59;7351661;19;20026;-71
2023/01/10 07:07:07;;;;;;;4.65;2.05;;;;;;;-13.38;64.94;101302.66;7348161;19;20018;-69
2023/01/10 07:09:31;;;;;;;10.73;1.27;;;;;;;-13.40;65.10;101303.38;7350076;19;20042;-69
2023/01/10 07:11:56;;;;;;;6.72;3.63;;;;;;;-13.58;65.45;101305.03;7349117;19;20021;-70
2023/01/10 07:14:21;;;;;;;4.35;2.80;;;;;;;-13.37;65.79;101303.53;7351064;19;20483;-70
2023/01/10 07:16:45;;;;;;;9.18;3.47;;;;;;;-13.25;65.15;101294.78;7350313;19;20020;-69
2023/01/10 07:19:12;;;;;;;6.10;3.33;;;;;;;-13.19;65.38;101295.88;7352065;19;20013;-70
2023/01/10 07:21:37;;;;;;;2.00;1.45;;;;;;;-13.10;64.50;101292.06;7350939;19;20018;-69
2023/01/10 07:24:02;;;;;;;6.65;3.35;;;;;;;-13.29;64.90;101302.22;7350333;19;20013;-69
2023/01/10 07:26:26;;;;;;;3.42;1.05;;;;;;;-13.20;65.17;101305.25;7352495;19;20017;-70
2023/01/10 07:28:51;;;;;;;1.83;1.30;;;;;;;-13.14;65.46;101310.72;7349488;19;20011;-69
2023/01/10 07:31:17;;;;;;;1.95;1.77;;;;;;;-12.97;64.88;101301.22;7349746;19;20044;-69
2023/01/10 07:33:42;;;;;;;4.18;2.58;;;;;;;-12.96;64.49;101324.41;7346036;19;20014;-70
2023/01/10 07:36:07;;;;;;;9.18;3.42;;;;;;;-12.89;64.24;101303.38;7352016;19;20040;-70
2023/01/10 07:38:32;;;;;;;5.35;2.58;;;;;;;-12.70;63.54;101309.38;7353273;19;20010;-70
2023/01/10 07:40:56;;;;;;;2.00;1.65;;;;;;;-12.80;63.31;101310.63;7350468;19;20014;-69
2023/01/10 07:43:21;;;;;;;4.03;2.85;;;;;;;-12.78;63.75;101321.00;7349737;19;20078;-71
2023/01/10 07:45:46;;;;;;;1.50;1.40;;;;;;;-12.86;63.68;101303.50;7347929;19;20353;-71
2023/01/10 07:48:10;;;;;;;7.03;3.35;;;;;;;-12.47;62.32;101326.78;7349040;19;20041;-69
2023/01/10 07:50:36;;;;;;;4.10;1.70;;;;;;;-12.55;62.28;101305.00;7349946;19;20014;-69
2023/01/10 07:53:04;;;;;;;6.50;2.25;;;;;;;-12.66;62.46;101308.75;7349018;19;20480;-70
2023/01/10 07:55:29;;;;;;;3.25;2.42;;;;;;;-12.58;62.32;101317.69;7347030;19;20014;-72
2023/01/10 07:57:54;;;;;;;7.95;3.33;;;;;;;-12.70;62.71;101304.25;7346177;19;20032;-70
2023/01/10 08:00:19;;;;;;;4.35;2.17;;;;;;;-12.66;63.12;101316.44;7347941;19;20059;-70
2023/01/10 08:02:44;;;;;;;3.10;1.92;;;;;;;-12.44;63.08;101314.09;7345294;19;20513;-71
2023/01/10 08:05:09;;;;;;;7.60;4.43;;;;;;;-12.52;63.13;101323.09;7346708;19;20348;-70
2023/01/10 08:07:33;;;;;;;4.47;3.03;;;;;;;-12.33;63.02;101317.16;7346919;19;20009;-71
2023/01/10 08:09:58;;;;;;;1.35;1.25;;;;;;;-12.28;62.79;101305.38;7344270;19;20014;-69
2023/01/10 08:12:25;;;;;;;1.80;1.50;;;;;;;-12.29;63.15;101309.63;7344812;19;20052;-70
2023/01/10 08:14:51;;;;;;;5.18;3.05;;;;;;;-12.01;62.66;101322.09;7344060;19;20022;-70
2023/01/10 08:17:16;;;;;;;6.68;2.30;;;;;;;-12.01;61.55;101310.91;7345456;19;20018;-70
2023/01/10 08:19:41;;;;;;;2.35;1.67;;;;;;;-12.04;61.31;101313.34;7344917;19;20075;-70
2023/01/10 08:22:05;;;;;;;4.78;1.73;;;;;;;-11.93;61.01;101317.28;7346870;19;20086;-70
2023/01/10 08:24:30;;;;;;;4.70;3.63;;;;;;;-11.86;60.97;101317.66;7348233;19;20018;-70
2023/01/10 08:26:57;;;;;;;2.92;1.45;;;;;;;-11.86;61.09;101311.63;7347133;19;20014;-70
2023/01/10 08:29:21;;;;;;;4.00;3.25;;;;;;;-12.00;60.97;101330.69;7349140;19;20010;-70
2023/01/10 08:31:46;;;;;;;8.48;2.65;;;;;;;-11.73;60.62;101311.28;7349850;19;20017;-69
2023/01/10 08:34:12;;;;;;;3.58;2.22;;;;;;;-11.73;60.69;101304.47;7345190;19;20015;-68
2023/01/10 08:36:36;;;;;;;2.53;1.50;;;;;;;-11.84;60.53;101313.41;7345924;19;20010;-68
2023/01/10 08:39:01;;;;;;;1.80;1.70;;;;;;;-11.88;61.29;101326.09;7344642;19;20016;-69
2023/01/10 08:41:26;;;;;;;5.78;2.97;;;;;;;-11.72;61.10;101310.47;7346339;19;20025;-75
2023/01/10 08:43:51;;;;;;;9.32;4.10;;;;;;;-11.27;59.93;101311.59;7344787;19;20029;-75
2023/01/10 08:46:16;;;;;;;1.65;1.52;;;;;;;-11.39;59.09;101308.50;7348615;19;20011;-76
2023/01/10 08:48:41;;;;;;;2.33;1.65;;;;;;;-11.28;58.57;101312.41;7349484;19;20041;-75
2023/01/10 08:51:09;;;;;;;3.30;2.30;;;;;;;-11.53;58.86;101292.50;7346529;19;20011;-76
2023/01/10 08:53:33;;;;;;;4.35;2.90;;;;;;;-11.22;58.38;101296.34;7347062;19;20015;-75
2023/01/10 08:55:58;;;;;;;4.40;2.40;;;;;;;-11.45;58.42;101311.69;7345831;19;20007;-75
2023/01/10 08:58:23;;;;;;;2.90;1.48;;;;;;;-11.38;58.56;101306.00;7344420;19;20039;-75
2023/01/10 09:00:48;;;;;;;7.18;2.30;;;;;;;-11.23;58.61;101305.78;7342520;19;20002;-75
2023/01/10 09:03:12;;;;;;;1.60;1.10;;;;;;;-11.37;58.60;101318.03;7343100;19;20031;-75
2023/01/10 09:05:37;;;;;;;5.65;2.50;;;;;;;-11.23;58.12;101305.78;7347043;19;20013;-75
2023/01/10 09:08:02;;;;;;;7.90;3.10;;;;;;;-11.34;58.68;101313.84;7343702;19;20019;-74
2023/01/10 09:10:28;;;;;;;5.88;2.75;;;;;;;-11.30;59.13;101305.47;7345534;19;20018;-75
2023/01/10 09:12:53;;;;;;;4.85;1.90;;;;;;;-11.38;59.01;101308.56;7341598;19;20041;-76
2023/01/10 09:15:18;;;;;;;11.38;3.60;;;;;;;-11.18;59.31;101294.00;7343053;19;20014;-75
2023/01/10 09:17:42;;;;;;;8.10;4.40;;;;;;;-11.22;58.68;101298.94;7345931;19;20011;-75
2023/01/10 09:20:09;;;;;;;6.05;5.45;;;;;;;-11.39;59.00;101295.63;7342939;19;20112;-75
2023/01/10 09:22:33;;;;;;;4.13;1.15;;;;;;;-11.44;59.40;101298.03;7343145;19;20128;-74
2023/01/10 09:24:58;;;;;;;7.88;4.10;;;;;;;-11.24;59.53;101306.59;7345929;19;20002;-74
2023/01/10 09:27:23;;;;;;;2.95;2.03;;;;;;;-11.27;59.10;101300.41;7342543;19;20343;-74
2023/01/10 09:29:47;;;;;;;2.35;1.92;;;;;;;-11.39;59.74;101299.09;7343468;19;20011;-75
2023/01/10 09:32:12;;;;;;;4.90;2.78;;;;;;;-11.13;59.13;101291.59;7340922;19;20365;-74
2023/01/10 09:34:36;;;;;;;5.85;2.17;;;;;;;-11.30;59.35;101292.59;7343876;19;20018;-75
2023/01/10 09:37:01;;;;;;;6.63;2.88;;;;;;;-11.25;59.77;101288.50;7343363;19;20018;-76
2023/01/10 09:39:28;;;;;;;3.83;1.48;;;;;;;-11.24;59.76;101295.41;7346339;19;20014;-77
2023/01/10 09:42:07;;;;;;;4.20;2.47;;;;;;;-11.07;59.68;101304.72;7347456;19;20010;-78
2023/01/10 09:44:41;;;;;;;5.93;3.17;;;;;;;-10.82;57.57;101294.59;7345172;19;20468;-78
2023/01/10 09:47:28;;;;;;;3.33;2.35;;;;;;;-10.87;57.89;101275.50;7349429;19;20014;-78
2023/01/10 09:50:08;;;;;;;3.88;1.90;;;;;;;-10.92;57.63;101292.47;7345563;19;20021;-77
2023/01/10 09:52:39;;;;;;;1.50;1.40;;;;;;;-10.98;56.83;101281.94;7342981;19;20037;-76
2023/01/10 09:55:26;;;;;;;2.65;1.85;;;;;;;-11.15;57.79;101278.66;7347061;19;20022;-79
2023/01/10 09:57:54;;;;;;;4.57;2.55;;;;;;;-11.19;58.20;101283.63;7349772;19;20023;-76
2023/01/10 10:00:33;;;;;;;3.67;1.63;;;;;;;-11.19;58.74;101293.91;7347375;19;20003;-76
2023/01/10 10:02:57;;;;;;;2.50;1.58;;;;;;;-10.81;57.24;101283.47;7344532;19;20022;-75
2023/01/10 10:05:25;;;;;;;4.35;2.75;;;;;;;-10.80;56.70;101295.53;7346807;19;20007;-76
2023/01/10 10:07:56;;;;;;;1.98;1.67;;;;;;;-10.69;55.85;101281.41;7344919;19;20019;-76
2023/01/10 10:10:40;;;;;;;2.65;2.00;;;;;;;-10.90;56.32;101277.97;7345613;19;20059;-77
2023/01/10 10:13:30;;;;;;;5.97;2.58;;;;;;;-10.89;56.34;101278.84;7341424;19;20018;-76
2023/01/10 10:16:22;;;;;;;4.20;2.35;;;;;;;-10.80;56.54;101279.19;7344290;19;20010;-75
2023/01/10 10:19:17;;;;;;;4.82;2.55;;;;;;;-10.70;55.57;101286.47;7341567;19;20083;-69
2023/01/10 10:21:42;;;;;;;1.00;0.75;;;;;;;-10.88;55.58;101281.47;7340417;19;20015;-69
2023/01/10 10:24:06;;;;;;;4.95;2.35;;;;;;;-10.95;55.65;101284.63;7340990;19;20015;-68
2023/01/10 10:26:46;;;;;;;4.05;1.83;;;;;;;-10.85;55.77;101280.75;7343329;19;20014;-69
2023/01/10 10:29:32;;;;;;;1.30;0.98;;;;;;;-10.91;56.20;101268.47;7340329;19;20354;-69
2023/01/10 10:32:16;;;;;;;5.80;2.80;;;;;;;-10.80;56.56;101279.19;7340074;19;20078;-69
2023/01/10 10:34:52;;;;;;;9.57;3.83;;;;;;;-10.56;55.72;101263.84;7343733;19;20468;-71
2023/01/10 10:37:38;;;;;;;4.25;2.35;;;;;;;-10.63;55.24;101260.16;7343543;19;20074;-73
2023/01/10 10:40:14;;;;;;;4.55;2.03;;;;;;;-10.62;54.96;101245.56;7345048;19;20006;-71
2023/01/10 10:42:43;;;;;;;3.78;2.38;;;;;;;-10.86;54.90;101268.66;7345352;19;20011;-72
2023/01/10 10:45:44;;;;;;;6.25;2.55;;;;;;;-10.87;55.86;101264.34;7349811;19;20014;-70
2023/01/10 10:48:33;;;;;;;5.25;2.45;;;;;;;-10.84;55.93;101273.06;7348643;19;20010;-71
2023/01/10 10:51:21;;;;;;;4.05;3.05;;;;;;;-10.97;56.16;101275.97;7348303;19;20033;-70
2023/01/10 10:53:47;;;;;;;4.20;1.60;;;;;;;-10.89;55.90;101268.53;7350724;19;20006;-69
2023/01/10 10:56:15;;;;;;;1.60;1.17;;;;;;;-10.77;55.26;101275.06;7348473;19;20109;-70
2023/01/10 10:58:42;;;;;;;2.63;1.80;;;;;;;-10.69;55.29;101263.34;7349621;19;20015;-70
2023/01/10 11:01:14;;;;;;;2.78;2.03;;;;;;;-10.66;55.55;101283.22;7348096;19;20022;-70
2023/01/10 11:03:59;;;;;;;5.00;3.45;;;;;;;-10.47;54.33;101282.22;7349062;19;20039;-70
2023/01/10 11:06:26;;;;;;;3.45;1.88;;;;;;;-10.78;54.35;101287.88;7348349;19;20153;-71
2023/01/10 11:08:55;;;;;;;2.42;1.42;;;;;;;-10.78;55.49;101301.63;7349688;19;20007;-70
2023/01/10 11:11:22;;;;;;;3.25;1.90;;;;;;;-10.78;55.25;101287.88;7347507;19;20010;-70
2023/01/10 11:13:58;;;;;;;3.20;2.17;;;;;;;-10.55;54.64;101275.91;7347148;19;20022;-70
2023/01/10 11:16:28;;;;;;;6.22;2.65;;;;;;;-10.76;55.38;101286.25;7346718;19;20041;-70
2023/01/10 11:19:09;;;;;;;6.70;3.90;;;;;;;-10.40;54.58;101281.66;7347491;19;20018;-69
2023/01/10 11:21:34;;;;;;;2.92;2.65;;;;;;;-10.51;53.99;101294.13;7345927;19;20014;-70
2023/01/10 11:24:00;;;;;;;7.00;4.10;;;;;;;-10.43;53.88;101273.81;7347726;19;20018;-70
2023/01/10 11:26:38;;;;;;;1.40;1.30;;;;;;;-10.58;54.29;101284.38;7349386;19;20025;-70
2023/01/10 11:29:24;;;;;;;2.17;1.58;;;;;;;-10.58;54.28;101286.97;7346026;19;20053;-70
2023/01/10 11:31:50;;;;;;;3.63;2.17;;;;;;;-10.59;54.08;101295.50;7348833;19;20014;-69
2023/01/10 11:34:28;;;;;;;4.45;2.63;;;;;;;-10.55;54.18;101281.06;7344387;19;20024;-70
2023/01/10 11:36:53;;;;;;;2.25;1.20;;;;;;;-10.61;53.98;101275.69;7350611;19;20028;-76